Terminal Aerodrome Forecast
Issued by NWS Sterling, VA

Current Version | Previous Version | Graphics & Text | Print | Product List | Glossary On
Versions: 1 2 3 4 5 6 7 8 9 10 11 12 13
590
FTUS41 KLWX 172343
TAFMRB
TAF
KMRB 172343Z 1800/1824 32009KT P6SM FEW250
     FM181500 28012G21KT P6SM FEW150
     FM182200 28008KT P6SM SKC=

USA.gov is the U.S. government's official web portal to all federal, state and local government web resources and services.